Time;durP1;ratioP1;P1;durP2;ratioP2;P2;SDS_P1;SDS_P2;PMS_P1;PMS_P2;Temp;Humidity;BMP_temperature;BMP_pressure;BME280_temperature;BME280_humidity;BME280_pressure;Samples;Min_cycle;Max_cycle;Signal;HPM_P1;HPM_P2
2022/03/27 00:00:07;;;;;;;1.57;0.77;;;10.90;99.90;10.50;102993.00;;;;5078575;28;20233;-70
2022/03/27 00:02:33;;;;;;;0.63;0.63;;;10.90;99.90;10.30;102990.00;;;;5094626;28;20191;-71
2022/03/27 00:05:05;;;;;;;0.20;0.20;;;10.90;99.90;10.40;102995.00;;;;5077863;28;20179;-69
2022/03/27 00:07:37;;;;;;;0.30;0.30;;;10.90;99.90;10.10;103009.00;;;;5094578;28;20184;-70
2022/03/27 00:10:04;;;;;;;0.20;0.20;;;10.80;99.90;10.40;102997.00;;;;5077464;28;20179;-71
2022/03/27 00:12:31;;;;;;;4.83;2.40;;;10.80;99.90;10.30;103000.00;;;;5076031;28;20716;-70
2022/03/27 00:15:03;;;;;;;4.93;4.17;;;10.80;99.90;10.10;103003.00;;;;5094735;28;20217;-69
2022/03/27 00:17:36;;;;;;;0.83;0.83;;;10.70;99.90;10.10;103003.00;;;;5094255;28;20186;-69
2022/03/27 00:20:08;;;;;;;0.30;0.30;;;10.70;99.90;10.60;103006.00;;;;5077303;28;20191;-69
2022/03/27 00:22:36;;;;;;;1.27;1.17;;;10.80;99.90;11.10;102949.00;;;;5077811;28;20283;-69
2022/03/27 00:25:08;;;;;;;0.63;0.63;;;11.00;99.90;11.20;102994.00;;;;5094535;28;20186;-67
2022/03/27 00:27:39;;;;;;;0.67;0.67;;;11.10;99.90;11.40;102961.00;;;;5094328;28;20260;-69
2022/03/27 00:30:06;;;;;;;0.30;0.30;;;11.40;99.90;11.70;102986.00;;;;5094395;28;20645;-69
2022/03/27 00:32:32;;;;;;;2.13;1.27;;;11.60;99.90;11.80;102994.00;;;;5076845;28;20222;-69
2022/03/27 00:35:00;;;;;;;0.20;0.20;;;11.70;99.90;11.00;102992.00;;;;5076998;28;20193;-68
2022/03/27 00:37:27;;;;;;;0.30;0.30;;;11.50;99.90;11.00;102991.00;;;;5077614;28;20186;-68
2022/03/27 00:39:53;;;;;;;0.30;0.30;;;11.30;99.90;10.70;102964.00;;;;5076330;28;20270;-68
2022/03/27 00:42:19;;;;;;;0.30;0.30;;;11.20;99.90;10.50;102981.00;;;;5093821;28;20274;-68
2022/03/27 00:44:45;;;;;;;0.40;0.40;;;11.00;99.90;10.10;102987.00;;;;5076387;28;20250;-68
2022/03/27 00:47:17;;;;;;;0.63;0.63;;;10.80;99.90;9.80;102999.00;;;;5095279;28;20271;-68
2022/03/27 00:49:45;;;;;;;0.30;0.30;;;10.60;99.90;10.00;102999.00;;;;5092757;28;20178;-68
2022/03/27 00:52:13;;;;;;;0.20;0.20;;;10.50;99.90;10.00;103010.00;;;;5076619;28;20662;-68
2022/03/27 00:54:39;;;;;;;0.20;0.20;;;10.40;99.90;9.80;103015.00;;;;5075143;28;20288;-69
2022/03/27 00:57:11;;;;;;;0.20;0.20;;;10.40;99.90;9.70;103008.00;;;;5076879;28;20645;-69
2022/03/27 00:59:40;;;;;;;0.20;0.20;;;10.30;99.90;9.90;102965.00;;;;5093786;28;20267;-68
2022/03/27 01:02:10;;;;;;;0.20;0.20;;;10.20;99.90;9.70;103011.00;;;;5091930;28;20181;-69
2022/03/27 01:04:43;;;;;;;1.60;1.50;;;10.30;99.90;10.40;103004.00;;;;5093508;28;20311;-68
2022/03/27 01:07:13;;;;;;;0.97;0.80;;;10.40;99.90;9.70;102999.00;;;;5076632;28;20274;-68
2022/03/27 01:09:40;;;;;;;0.73;0.73;;;10.40;99.90;10.00;103000.00;;;;5075865;28;20177;-69
2022/03/27 01:12:18;;;;;;;0.87;0.87;;;10.40;99.90;9.60;103001.00;;;;5092392;28;20197;-68
2022/03/27 01:14:48;;;;;;;0.60;0.60;;;10.30;99.90;9.80;102991.00;;;;5094437;28;20687;-68
2022/03/27 01:17:18;;;;;;;3.23;1.07;;;10.20;99.90;10.00;103004.00;;;;5076245;28;20654;-69
2022/03/27 01:19:47;;;;;;;0.20;0.20;;;10.40;99.90;9.60;103003.00;;;;5094307;28;20196;-69
2022/03/27 01:22:14;;;;;;;0.97;0.97;;;10.20;99.90;9.80;103000.00;;;;5094399;28;20180;-69
2022/03/27 01:24:40;;;;;;;0.20;0.20;;;10.20;99.90;9.80;102986.00;;;;5093443;28;20177;-69
2022/03/27 01:27:08;;;;;;;0.50;0.50;;;10.30;99.90;9.60;102995.00;;;;5092189;28;20181;-70
2022/03/27 01:29:34;;;;;;;0.20;0.20;;;10.20;99.90;9.70;102991.00;;;;5093185;28;20175;-69
2022/03/27 01:32:01;;;;;;;0.30;0.30;;;10.10;99.90;9.70;103009.00;;;;5092171;28;20222;-70
2022/03/27 01:34:30;;;;;;;0.50;0.50;;;10.20;99.90;9.40;102996.00;;;;5094083;28;20187;-69
2022/03/27 01:36:56;;;;;;;0.20;0.20;;;10.00;99.90;9.40;103002.00;;;;5076010;28;20235;-70
2022/03/27 01:39:22;;;;;;;0.20;0.20;;;9.90;99.90;9.70;102999.00;;;;5075913;28;20177;-70
2022/03/27 01:41:56;;;;;;;0.30;0.30;;;9.90;99.90;9.60;102998.00;;;;5075258;28;20223;-70
2022/03/27 01:44:25;;;;;;;0.30;0.30;;;10.00;99.90;9.50;102984.00;;;;5092435;28;20200;-70
2022/03/27 01:46:52;;;;;;;1.53;1.43;;;9.90;99.90;9.60;102989.00;;;;5075556;28;20183;-71
2022/03/27 01:49:26;;;;;;;0.40;0.40;;;9.90;99.90;9.80;102984.00;;;;5092363;28;20218;-70
2022/03/27 01:51:58;;;;;;;0.73;0.73;;;10.00;99.90;9.80;102981.00;;;;5092848;28;20223;-71
2022/03/27 01:54:24;;;;;;;0.20;0.20;;;10.00;99.90;9.30;102990.00;;;;5092947;28;20204;-70
2022/03/27 01:56:53;;;;;;;0.30;0.30;;;9.90;99.90;9.40;102984.00;;;;5075712;28;20630;-70
2022/03/27 01:59:21;;;;;;;0.30;0.30;;;9.90;99.90;9.40;102980.00;;;;5075107;28;20218;-69
2022/03/27 02:01:47;;;;;;;0.43;0.40;;;9.90;99.90;9.60;102980.00;;;;5075561;28;20659;-70
2022/03/27 02:04:15;;;;;;;0.20;0.20;;;9.90;99.90;9.30;102973.00;;;;5075745;28;20181;-69
2022/03/27 02:06:43;;;;;;;2.20;0.87;;;9.80;99.90;9.10;102979.00;;;;5095025;28;20193;-71
2022/03/27 02:09:12;;;;;;;0.30;0.30;;;9.70;99.90;9.30;102977.00;;;;5090637;28;20185;-69
2022/03/27 02:11:40;;;;;;;1.60;1.50;;;9.70;99.90;9.80;102979.00;;;;5092699;28;20233;-68
2022/03/27 02:14:06;;;;;;;0.30;0.30;;;9.90;99.90;9.70;102978.00;;;;5092507;28;20224;-69
2022/03/27 02:16:32;;;;;;;1.57;1.50;;;9.90;99.90;9.30;102973.00;;;;5075100;28;20182;-69
2022/03/27 02:19:01;;;;;;;0.30;0.30;;;9.80;99.90;9.50;102976.00;;;;5075153;28;20637;-69
2022/03/27 02:21:26;;;;;;;0.53;0.53;;;9.70;99.90;9.40;102974.00;;;;5093480;28;20196;-69
2022/03/27 02:23:55;;;;;;;0.30;0.30;;;9.70;99.90;9.40;102980.00;;;;5095319;28;20599;-69
2022/03/27 02:26:23;;;;;;;1.50;1.50;;;9.70;99.90;9.10;102981.00;;;;5112098;28;20262;-69
2022/03/27 02:28:52;;;;;;;0.70;0.70;;;9.70;99.90;9.20;102981.00;;;;5094573;28;20184;-69
2022/03/27 02:31:19;;;;;;;0.20;0.20;;;9.70;99.90;9.20;102970.00;;;;5094678;28;20234;-70
2022/03/27 02:33:48;;;;;;;0.67;0.67;;;9.70;99.90;8.90;102977.00;;;;5094599;28;20279;-68
2022/03/27 02:36:16;;;;;;;0.37;0.37;;;9.50;99.90;8.70;102968.00;;;;5112719;28;20229;-69
2022/03/27 02:38:43;;;;;;;0.20;0.20;;;9.40;99.90;8.70;102988.00;;;;5094926;28;20198;-68
2022/03/27 02:41:09;;;;;;;0.60;0.60;;;9.40;99.90;8.90;102978.00;;;;5094925;28;20187;-69
2022/03/27 02:43:38;;;;;;;0.30;0.30;;;9.40;99.90;8.70;102974.00;;;;5094560;28;20184;-69
2022/03/27 02:46:07;;;;;;;1.43;1.43;;;9.40;99.90;8.90;102976.00;;;;5095353;28;20200;-68
2022/03/27 02:48:34;;;;;;;1.03;0.70;;;9.40;99.90;9.00;102972.00;;;;5094525;28;20187;-69
2022/03/27 02:51:00;;;;;;;0.57;0.57;;;9.50;99.90;8.90;102972.00;;;;5094519;28;20180;-69
2022/03/27 02:53:25;;;;;;;0.30;0.30;;;9.50;99.90;9.00;102965.00;;;;5095189;28;20188;-69
2022/03/27 02:55:57;;;;;;;0.90;0.80;;;9.50;99.90;9.50;102980.00;;;;5091393;28;20185;-69
2022/03/27 02:58:23;;;;;;;0.30;0.30;;;9.60;99.90;9.90;102970.00;;;;5075144;28;20182;-70
2022/03/27 03:00:49;;;;;;;0.40;0.40;;;9.90;99.90;10.30;102965.00;;;;5073180;28;20177;-70
2022/03/27 03:03:15;;;;;;;1.20;1.13;;;10.10;99.90;10.40;102963.00;;;;5074123;28;20255;-69
2022/03/27 03:05:42;;;;;;;0.50;0.50;;;10.30;99.90;10.30;102957.00;;;;5074134;28;20697;-69
2022/03/27 03:08:12;;;;;;;3.17;1.13;;;10.40;99.90;10.00;102956.00;;;;5091523;28;20166;-70
2022/03/27 03:10:40;;;;;;;0.63;0.63;;;10.40;99.90;9.80;102955.00;;;;5091735;28;20238;-69
2022/03/27 03:13:08;;;;;;;0.27;0.27;;;10.10;99.90;9.30;102952.00;;;;5091405;28;20190;-69
2022/03/27 03:15:39;;;;;;;0.27;0.27;;;9.90;99.90;9.10;102962.00;;;;5091590;28;20255;-70
2022/03/27 03:18:06;;;;;;;1.17;1.07;;;9.70;99.90;9.10;102946.00;;;;5074891;28;20307;-70
2022/03/27 03:20:33;;;;;;;0.30;0.30;;;9.70;99.90;8.70;102959.00;;;;5078480;28;20546;-68
2022/03/27 03:22:59;;;;;;;2.50;2.40;;;9.50;99.90;8.60;102957.00;;;;5094662;28;20173;-69
2022/03/27 03:25:26;;;;;;;1.37;1.30;;;9.30;99.90;8.90;102960.00;;;;5078516;28;20660;-70
2022/03/27 03:27:52;;;;;;;1.77;0.93;;;9.30;99.90;8.50;102957.00;;;;5077432;28;20657;-69
2022/03/27 03:30:17;;;;;;;0.30;0.30;;;9.20;99.90;8.40;102966.00;;;;5093650;28;20178;-70
2022/03/27 03:32:45;;;;;;;0.77;0.77;;;9.20;99.90;8.70;102962.00;;;;5077911;28;20224;-70
2022/03/27 03:35:12;;;;;;;1.10;1.10;;;9.20;99.90;8.40;102959.00;;;;5095534;28;20184;-69
2022/03/27 03:37:41;;;;;;;1.07;1.07;;;9.10;99.90;8.50;102964.00;;;;5078353;28;20191;-69
2022/03/27 03:40:14;;;;;;;0.60;0.60;;;9.10;99.90;8.30;102962.00;;;;5078538;28;20203;-69
2022/03/27 03:42:41;;;;;;;0.23;0.23;;;9.00;99.90;8.30;102959.00;;;;5077421;28;20521;-70
2022/03/27 03:45:07;;;;;;;0.57;0.57;;;9.00;99.90;8.20;102911.00;;;;5095048;28;20208;-70
2022/03/27 03:47:33;;;;;;;6.53;3.60;;;9.00;99.90;8.00;102955.00;;;;5078062;28;20234;-69
2022/03/27 03:50:02;;;;;;;1.50;1.40;;;8.90;99.90;8.00;102951.00;;;;5078314;28;20176;-69
2022/03/27 03:52:28;;;;;;;3.80;2.57;;;8.80;99.90;8.30;102955.00;;;;5094837;28;20203;-69
2022/03/27 03:54:54;;;;;;;37.23;8.17;;;8.80;99.90;8.10;102951.00;;;;5078020;28;20187;-70
2022/03/27 03:57:22;;;;;;;2.33;1.13;;;8.90;99.90;8.00;102945.00;;;;5077415;28;20181;-69
2022/03/27 03:59:48;;;;;;;13.63;7.60;;;8.80;99.90;8.20;102955.00;;;;5078217;28;20177;-69
2022/03/27 04:02:18;;;;;;;4.57;4.10;;;8.80;99.90;8.10;102944.00;;;;5094581;28;20185;-69
2022/03/27 04:04:44;;;;;;;5.17;4.63;;;8.80;99.90;8.10;102943.00;;;;5093847;28;20267;-68
2022/03/27 04:07:13;;;;;;;2.37;1.33;;;8.80;99.90;8.30;102940.00;;;;5077779;28;20208;-69
2022/03/27 04:09:39;;;;;;;2.43;2.00;;;8.80;99.90;8.20;102942.00;;;;5078063;28;20181;-69
2022/03/27 04:12:05;;;;;;;0.67;0.67;;;8.80;99.90;8.30;102945.00;;;;5077321;28;20215;-69
2022/03/27 04:14:36;;;;;;;3.70;2.60;;;8.90;99.90;8.30;102946.00;;;;5077713;28;20181;-69
2022/03/27 04:17:03;;;;;;;4.30;3.90;;;8.90;99.90;8.10;102943.00;;;;5077635;28;20183;-69
2022/03/27 04:19:32;;;;;;;3.27;2.90;;;8.80;99.90;8.20;102936.00;;;;5077411;28;20182;-69
2022/03/27 04:21:58;;;;;;;1.20;1.10;;;8.90;99.90;8.20;102933.00;;;;5076465;28;20194;-70
2022/03/27 04:24:27;;;;;;;1.97;1.90;;;8.90;99.90;8.30;102942.00;;;;5077631;28;20188;-69
2022/03/27 04:26:52;;;;;;;8.53;4.40;;;8.90;99.90;8.30;102947.00;;;;5094034;28;20181;-68
2022/03/27 04:29:21;;;;;;;15.57;4.70;;;8.90;99.90;8.40;102945.00;;;;5077342;28;20644;-69
2022/03/27 04:31:47;;;;;;;1.13;1.13;;;8.90;99.90;8.30;102951.00;;;;5076593;28;20307;-68
2022/03/27 04:34:13;;;;;;;7.43;5.93;;;8.90;99.90;8.20;102938.00;;;;5077169;28;20268;-69
2022/03/27 04:36:40;;;;;;;2.87;2.67;;;8.90;99.90;8.30;102942.00;;;;5076792;28;20633;-70
2022/03/27 04:39:12;;;;;;;2.27;2.17;;;8.90;99.90;8.20;102955.00;;;;5093951;28;20179;-69
2022/03/27 04:41:38;;;;;;;8.03;1.30;;;8.90;99.90;8.40;102944.00;;;;5076503;28;20219;-69
2022/03/27 04:44:06;;;;;;;3.97;3.60;;;9.00;99.90;8.30;102947.00;;;;5093840;28;20632;-69
2022/03/27 04:46:33;;;;;;;2.43;2.23;;;8.90;99.90;8.40;102949.00;;;;5093998;28;20182;-69
2022/03/27 04:48:59;;;;;;;6.77;4.50;;;9.10;99.90;8.60;102948.00;;;;5076777;28;20648;-69
2022/03/27 04:51:25;;;;;;;6.60;4.60;;;9.10;99.90;8.20;102952.00;;;;5076777;28;20737;-69
2022/03/27 04:53:56;;;;;;;1.40;1.40;;;9.00;99.90;8.50;102954.00;;;;5076257;28;20181;-69
2022/03/27 04:56:22;;;;;;;24.90;8.77;;;9.00;99.90;8.30;102957.00;;;;5093355;28;20182;-69
2022/03/27 04:58:51;;;;;;;2.30;2.10;;;9.00;99.90;8.60;102952.00;;;;5076944;28;20177;-68
2022/03/27 05:01:16;;;;;;;0.70;0.70;;;9.10;99.90;8.70;102954.00;;;;5077065;28;20230;-68
2022/03/27 05:03:42;;;;;;;5.00;4.07;;;9.20;99.90;9.00;102952.00;;;;5076540;28;20185;-69
2022/03/27 05:06:08;;;;;;;14.83;7.03;;;9.30;99.90;8.90;102968.00;;;;5076789;28;20192;-69
2022/03/27 05:08:35;;;;;;;4.70;4.07;;;9.30;99.90;8.80;102968.00;;;;5076392;28;20707;-69
2022/03/27 05:11:06;;;;;;;8.53;2.23;;;9.30;99.90;9.00;102971.00;;;;5076472;28;20192;-69
2022/03/27 05:13:32;;;;;;;5.10;4.70;;;9.40;99.90;8.60;102965.00;;;;5076589;28;20263;-70
2022/03/27 05:15:57;;;;;;;6.00;5.07;;;9.20;99.90;8.60;102967.00;;;;5075976;28;20667;-69
2022/03/27 05:18:23;;;;;;;6.00;5.60;;;9.20;99.90;9.20;102958.00;;;;5076078;28;20537;-70
2022/03/27 05:20:49;;;;;;;0.93;0.93;;;9.40;99.90;9.10;102960.00;;;;5076247;28;20192;-70
2022/03/27 05:23:20;;;;;;;2.67;2.47;;;9.40;99.90;8.80;102967.00;;;;5076617;28;20293;-70
2022/03/27 05:25:48;;;;;;;11.83;8.13;;;9.40;99.90;8.80;102969.00;;;;5093270;28;20174;-68
2022/03/27 05:28:14;;;;;;;6.40;3.00;;;9.40;99.90;8.80;102965.00;;;;5093277;28;20177;-69
2022/03/27 05:30:41;;;;;;;3.00;2.70;;;9.40;99.90;9.00;102963.00;;;;5093149;28;20181;-69
2022/03/27 05:33:07;;;;;;;14.00;9.20;;;9.40;99.90;8.80;102957.00;;;;5091798;28;20266;-69
2022/03/27 05:35:36;;;;;;;11.87;8.23;;;9.40;99.90;8.80;102961.00;;;;5109301;28;20181;-70
2022/03/27 05:38:02;;;;;;;4.63;3.20;;;9.40;99.90;8.70;102968.00;;;;5109774;28;20212;-70
2022/03/27 05:40:36;;;;;;;9.13;7.87;;;9.30;99.90;8.80;102970.00;;;;5109496;28;20722;-69
2022/03/27 05:43:05;;;;;;;2.43;2.27;;;9.30;99.90;8.70;102964.00;;;;5108804;28;20194;-69
2022/03/27 05:45:31;;;;;;;2.47;2.10;;;9.30;99.90;8.80;102971.00;;;;5109801;28;20254;-70
2022/03/27 05:48:00;;;;;;;28.17;14.53;;;9.30;99.90;8.50;102974.00;;;;5109678;28;20172;-70
2022/03/27 05:50:28;;;;;;;0.83;0.83;;;9.20;99.90;8.90;102967.00;;;;5091921;28;20794;-70
2022/03/27 05:52:55;;;;;;;17.83;9.07;;;9.30;99.90;8.80;102970.00;;;;5109389;28;20211;-70
2022/03/27 05:55:25;;;;;;;21.27;9.20;;;9.30;99.90;8.60;102971.00;;;;5109463;28;20264;-70
2022/03/27 05:57:51;;;;;;;4.00;2.63;;;9.20;99.90;8.70;102966.00;;;;5075686;28;20182;-71
2022/03/27 06:00:21;;;;;;;4.63;3.80;;;9.30;99.90;8.60;102977.00;;;;5109580;28;20230;-69
2022/03/27 06:02:50;;;;;;;9.53;7.13;;;9.30;99.90;8.70;102980.00;;;;5108184;28;20716;-69
2022/03/27 06:05:23;;;;;;;9.20;7.80;;;9.30;99.90;8.50;102988.00;;;;5109428;28;20181;-68
2022/03/27 06:07:55;;;;;;;12.33;7.77;;;9.20;99.90;8.50;102981.00;;;;5092160;28;20181;-68
2022/03/27 06:10:24;;;;;;;11.63;6.03;;;9.20;99.90;8.60;102983.00;;;;5109442;28;20191;-70
2022/03/27 06:12:51;;;;;;;7.70;4.03;;;9.20;99.90;8.60;102974.00;;;;5109306;28;20672;-69
2022/03/27 06:15:19;;;;;;;17.43;8.70;;;9.20;99.90;8.40;102974.00;;;;5109335;28;20177;-70
2022/03/27 06:18:17;;;;;;;4.50;2.50;;;9.20;99.90;8.50;102977.00;;;;5109291;28;20188;-70
2022/03/27 06:20:50;;;;;;;18.10;8.50;;;9.20;99.90;8.60;102981.00;;;;5108737;28;20264;-70
2022/03/27 06:23:24;;;;;;;17.63;8.77;;;9.20;99.90;8.40;102992.00;;;;5108715;28;20182;-70
2022/03/27 06:25:55;;;;;;;7.03;4.80;;;9.20;99.90;8.60;102993.00;;;;5108596;28;20215;-69
2022/03/27 06:28:21;;;;;;;15.43;6.60;;;9.20;99.90;8.80;102986.00;;;;5108794;28;20203;-70
2022/03/27 06:30:50;;;;;;;14.23;6.20;;;9.30;99.90;8.60;102979.00;;;;5109247;28;20217;-70
2022/03/27 06:33:19;;;;;;;5.23;3.70;;;9.20;99.90;8.70;102994.00;;;;5109001;28;20244;-70
2022/03/27 06:35:45;;;;;;;2.33;2.23;;;9.20;99.90;8.70;102986.00;;;;5109200;28;20181;-70
2022/03/27 06:38:11;;;;;;;11.30;6.30;;;9.30;99.90;8.70;102994.00;;;;5108113;28;20211;-71
2022/03/27 06:40:36;;;;;;;16.90;8.37;;;9.30;99.90;8.70;102994.00;;;;5109086;28;20192;-71
2022/03/27 06:43:04;;;;;;;10.33;5.70;;;9.30;99.90;8.80;102999.00;;;;5092788;28;20186;-70
2022/03/27 06:45:29;;;;;;;0.70;0.70;;;9.40;99.90;9.00;103003.00;;;;5109223;28;20216;-70
2022/03/27 06:47:58;;;;;;;3.30;2.37;;;9.40;99.90;8.80;102987.00;;;;5091704;28;20204;-70
2022/03/27 06:50:24;;;;;;;12.50;4.83;;;9.40;99.90;8.80;103001.00;;;;5109003;28;20223;-70
2022/03/27 06:52:52;;;;;;;3.27;3.00;;;9.40;99.90;8.90;103009.00;;;;5107934;28;20245;-70
2022/03/27 06:55:20;;;;;;;8.43;3.57;;;9.40;99.90;9.30;102999.00;;;;5095874;28;20276;-70
2022/03/27 06:57:46;;;;;;;5.83;3.87;;;9.60;99.90;9.10;102995.00;;;;5113206;28;20209;-70
2022/03/27 07:03:14;;;;;;;0.40;0.40;;;9.60;99.90;8.90;102996.00;;;;5110816;28;20196;-72
2022/03/27 07:05:44;;;;;;;18.00;10.00;;;9.50;99.90;9.20;103007.00;;;;5112549;28;20177;-71
2022/03/27 07:08:14;;;;;;;5.07;4.67;;;9.60;99.90;9.10;103000.00;;;;5095914;28;20233;-71
2022/03/27 07:10:41;;;;;;;12.27;6.33;;;9.60;99.90;9.00;102999.00;;;;5095996;28;20322;-72
2022/03/27 07:13:12;;;;;;;8.43;4.73;;;9.50;99.90;8.90;102995.00;;;;5112871;28;20219;-71
2022/03/27 07:15:40;;;;;;;1.37;1.37;;;9.50;99.90;9.50;102954.00;;;;5112110;28;20181;-71
2022/03/27 07:18:07;;;;;;;5.10;2.27;;;9.70;99.90;9.80;102984.00;;;;5112445;28;20264;-70
2022/03/27 07:20:36;;;;;;;2.63;2.20;;;9.90;99.90;9.50;102994.00;;;;5112314;28;20175;-70
2022/03/27 07:23:20;;;;;;;5.43;4.83;;;9.90;99.90;9.00;103004.00;;;;5112184;28;20249;-72
2022/03/27 07:26:24;;;;;;;11.73;5.57;;;9.70;99.90;9.00;102999.00;;;;5097539;28;20544;-73
2022/03/27 07:29:22;;;;;;;6.63;3.70;;;9.70;99.90;9.10;102998.00;;;;5095137;28;20194;-71
2022/03/27 07:32:28;;;;;;;2.77;2.57;;;9.60;99.90;8.80;102995.00;;;;5096524;28;20714;-73
2022/03/27 07:34:54;;;;;;;5.77;5.27;;;9.60;99.90;9.10;102996.00;;;;5096124;28;20633;-71
2022/03/27 07:37:34;;;;;;;8.03;4.13;;;9.60;99.90;9.20;102990.00;;;;5111916;28;20184;-71
2022/03/27 07:40:03;;;;;;;5.33;2.27;;;9.70;99.90;9.20;102987.00;;;;5111906;28;20176;-70
2022/03/27 07:42:32;;;;;;;0.40;0.40;;;9.70;99.90;9.40;102991.00;;;;5094609;28;20636;-70
2022/03/27 07:45:02;;;;;;;5.70;4.33;;;9.80;99.90;9.40;102992.00;;;;5112378;28;20182;-70
2022/03/27 07:47:37;;;;;;;2.83;2.63;;;9.80;99.90;9.20;103007.00;;;;5111606;28;20256;-70
2022/03/27 07:50:13;;;;;;;42.27;11.93;;;9.80;99.90;9.00;103000.00;;;;5110868;28;20189;-69
2022/03/27 07:53:51;;;;;;;0.47;0.47;;;9.70;99.90;8.90;102996.00;;;;5111529;28;20196;-71
2022/03/27 07:56:19;;;;;;;5.23;3.57;;;9.60;99.90;8.90;102994.00;;;;5094551;28;20188;-70
2022/03/27 07:58:46;;;;;;;8.23;4.37;;;9.60;99.90;9.20;103006.00;;;;5111208;28;20586;-70
2022/03/27 08:01:14;;;;;;;11.33;6.07;;;9.70;99.90;9.80;103015.00;;;;5094899;28;20622;-72
2022/03/27 08:03:41;;;;;;;1.70;1.60;;;9.90;99.90;9.90;103000.00;;;;5094214;28;20185;-72
2022/03/27 08:06:08;;;;;;;1.53;1.43;;;10.20;99.90;10.40;103002.00;;;;5112163;28;20183;-71
2022/03/27 08:08:34;;;;;;;0.67;0.67;;;10.40;99.90;10.10;102995.00;;;;5113767;28;20272;-72
2022/03/27 08:11:00;;;;;;;0.70;0.70;;;10.40;99.90;9.80;103001.00;;;;5114394;28;20222;-73
2022/03/27 08:13:26;;;;;;;4.37;3.77;;;10.30;99.90;9.60;103001.00;;;;5097572;28;20220;-72
2022/03/27 08:15:52;;;;;;;8.60;2.73;;;10.20;99.90;9.90;103003.00;;;;5090545;28;20273;-72
2022/03/27 08:18:18;;;;;;;8.63;5.00;;;10.20;99.90;9.30;103000.00;;;;5077178;28;20198;-71
2022/03/27 08:20:44;;;;;;;2.10;1.50;;;10.00;99.90;8.90;103005.00;;;;5077285;28;20222;-72
2022/03/27 08:23:10;;;;;;;0.20;0.20;;;9.70;99.90;9.40;103009.00;;;;5082868;28;20745;-73
2022/03/27 08:28:22;;;;;;;5.43;4.57;;;10.20;99.90;10.30;103005.00;;;;5114838;28;20690;-73
2022/03/27 08:30:49;;;;;;;6.37;3.93;;;10.40;99.90;9.70;103007.00;;;;5114935;28;20189;-73
2022/03/27 08:33:16;;;;;;;8.33;3.70;;;10.30;99.90;9.30;103002.00;;;;5111856;28;20292;-72
2022/03/27 08:35:43;;;;;;;2.63;2.43;;;10.10;99.90;9.70;103003.00;;;;5107463;28;20185;-72
2022/03/27 08:38:14;;;;;;;1.07;1.07;;;10.00;99.90;10.10;103000.00;;;;5114402;28;20206;-72
2022/03/27 08:40:45;;;;;;;4.87;1.97;;;10.20;99.90;10.50;102992.00;;;;5096074;28;20242;-72
2022/03/27 08:43:16;;;;;;;12.40;7.80;;;10.40;99.90;9.80;103011.00;;;;5110489;28;20194;-72
2022/03/27 08:45:44;;;;;;;8.00;6.63;;;10.40;99.90;8.90;103002.00;;;;5097563;28;20603;-72
2022/03/27 08:48:11;;;;;;;11.67;6.33;;;10.00;99.90;8.80;102998.00;;;;5114014;28;20647;-71
2022/03/27 08:50:50;;;;;;;1.73;1.70;;;9.60;99.90;9.10;103005.00;;;;5102039;28;20180;-72
2022/03/27 08:53:37;;;;;;;13.33;4.40;;;9.70;99.90;9.20;103006.00;;;;5103652;28;20216;-72
2022/03/27 08:56:08;;;;;;;4.43;4.10;;;9.70;99.90;9.10;103008.00;;;;5093890;28;20196;-71
2022/03/27 08:58:37;;;;;;;7.13;4.97;;;9.70;99.90;9.60;103010.00;;;;5108777;28;20661;-72
2022/03/27 09:01:05;;;;;;;3.70;3.50;;;9.90;99.90;9.40;102969.00;;;;5113664;28;20190;-74
2022/03/27 09:03:31;;;;;;;1.33;0.83;;;9.80;99.90;10.10;102958.00;;;;5116174;28;20200;-79
2022/03/27 09:05:59;;;;;;;0.90;0.90;;;10.10;99.90;9.80;102962.00;;;;5116046;28;20275;-77
2022/03/27 09:08:25;;;;;;;1.43;1.33;;;10.20;99.90;9.80;103006.00;;;;5115270;28;20190;-78
2022/03/27 09:10:55;;;;;;;2.53;2.33;;;10.20;99.90;10.10;103009.00;;;;5114374;28;20172;-77
2022/03/27 09:13:23;;;;;;;1.60;1.00;;;10.40;99.90;10.30;102994.00;;;;5113377;28;20215;-78
2022/03/27 09:16:05;;;;;;;2.10;1.90;;;10.50;99.90;10.60;102990.00;;;;5114180;28;20698;-79
2022/03/27 09:18:48;;;;;;;7.87;4.80;;;10.80;99.90;9.40;102956.00;;;;5113736;28;20196;-78
2022/03/27 09:21:17;;;;;;;0.60;0.53;;;10.30;99.90;10.00;102999.00;;;;5096841;28;20179;-76
2022/03/27 09:23:42;;;;;;;10.80;6.10;;;10.30;99.90;9.90;102996.00;;;;5113804;27;20199;-76
2022/03/27 09:26:16;;;;;;;2.83;1.73;;;10.40;99.90;10.10;102951.00;;;;5096315;28;20637;-78
2022/03/27 09:29:07;;;;;;;2.53;2.30;;;10.60;99.90;9.90;102994.00;;;;5113468;28;20529;-76
2022/03/27 09:31:32;;;;;;;3.40;1.93;;;10.60;99.90;10.60;103001.00;;;;5113785;28;20240;-77
2022/03/27 09:34:07;;;;;;;1.97;1.70;;;10.70;99.90;10.70;102987.00;;;;5087030;28;20216;-76
2022/03/27 09:36:42;;;;;;;0.30;0.30;;;10.90;99.90;10.90;102965.00;;;;5092304;28;20213;-78
2022/03/27 09:39:37;;;;;;;3.20;3.00;;;10.90;99.90;11.00;102981.00;;;;5093642;28;20175;-77
2022/03/27 09:42:24;;;;;;;7.63;2.70;;;11.10;99.90;10.70;102994.00;;;;5073186;28;20253;-78
2022/03/27 09:45:24;;;;;;;1.73;1.73;;;11.30;99.90;11.10;102984.00;;;;5092447;28;20192;-77
2022/03/27 09:48:08;;;;;;;4.07;3.00;;;11.20;99.90;11.00;102989.00;;;;5094286;28;20623;-77
2022/03/27 09:50:40;;;;;;;2.53;2.33;;;11.20;99.90;11.20;102985.00;;;;5075472;28;20271;-77
2022/03/27 09:53:28;;;;;;;1.70;1.60;;;11.40;99.90;11.00;102992.00;;;;5074997;28;20642;-77
2022/03/27 09:55:59;;;;;;;0.50;0.50;;;11.20;99.90;10.40;102983.00;;;;5075527;28;20181;-77
2022/03/27 09:58:46;;;;;;;3.67;2.07;;;11.00;99.90;10.50;102985.00;;;;5093676;28;20187;-78
2022/03/27 10:01:22;;;;;;;5.53;4.93;;;11.00;99.90;10.20;102937.00;;;;5092477;28;20183;-78
2022/03/27 10:04:16;;;;;;;4.33;3.53;;;10.90;99.90;9.80;102990.00;;;;5096435;28;20710;-78
2022/03/27 10:06:43;;;;;;;8.60;6.43;;;10.50;99.90;10.40;102995.00;;;;5092267;28;20189;-77
2022/03/27 10:09:13;;;;;;;1.43;1.33;;;10.70;99.90;10.70;102991.00;;;;5092288;28;20523;-77
2022/03/27 10:11:43;;;;;;;2.17;2.07;;;10.90;99.90;10.70;102976.00;;;;5091316;28;20202;-77
2022/03/27 10:14:09;;;;;;;5.70;4.27;;;11.00;99.90;11.10;102991.00;;;;5091652;28;20177;-75
2022/03/27 10:16:43;;;;;;;1.70;1.00;;;11.10;99.90;11.30;102940.00;;;;5092211;28;20558;-76
2022/03/27 10:19:33;;;;;;;4.20;3.23;;;11.30;99.90;11.40;102977.00;;;;5093137;28;20570;-75
2022/03/27 10:33:12;;;;;;;4.33;3.93;;;10.60;99.90;9.60;102994.00;;;;4967826;27;5307433;-77
2022/03/27 10:36:04;;;;;;;4.88;4.35;;;10.50;99.90;9.80;102984.00;;;;5122951;28;20328;-77
2022/03/27 10:39:08;;;;;;;1.03;0.97;;;10.50;99.90;10.50;102975.00;;;;5131316;27;20678;-77
2022/03/27 10:42:14;;;;;;;4.03;3.07;;;10.80;99.90;11.10;102976.00;;;;5129828;27;20204;-76
2022/03/27 10:45:07;;;;;;;1.83;1.80;;;11.10;99.90;10.50;102972.00;;;;5131321;28;20240;-76
2022/03/27 10:47:33;;;;;;;0.30;0.30;;;11.20;99.90;11.20;102973.00;;;;5129971;28;20295;-73
2022/03/27 10:50:05;;;;;;;3.23;2.87;;;11.40;99.90;11.20;102967.00;;;;5130226;28;20171;-73
2022/03/27 10:52:44;;;;;;;2.10;1.67;;;11.50;99.90;11.30;102953.00;;;;5130009;28;20199;-69
2022/03/27 10:55:14;;;;;;;3.03;2.83;;;11.60;99.90;10.90;102952.00;;;;5130127;27;20164;-70
2022/03/27 10:57:47;;;;;;;3.80;3.50;;;11.50;99.90;10.70;102922.00;;;;5129566;28;20620;-69
2022/03/27 11:00:14;;;;;;;5.00;4.70;;;11.30;99.90;11.40;102852.00;;;;5129942;28;20185;-70
2022/03/27 11:02:53;;;;;;;2.27;1.33;;;11.50;99.90;11.60;102967.00;;;;5112156;28;20175;-71
2022/03/27 11:05:36;;;;;;;6.40;3.27;;;11.70;99.90;11.10;102957.00;;;;5119999;28;20195;-68
2022/03/27 11:08:23;;;;;;;9.57;4.60;;;11.70;99.90;11.20;102961.00;;;;5109298;28;20203;-68
2022/03/27 11:10:52;;;;;;;1.67;1.60;;;11.60;99.90;10.90;102952.00;;;;5099460;28;20217;-68
2022/03/27 11:13:27;;;;;;;0.73;0.73;;;11.60;99.90;10.70;102962.00;;;;5108993;28;20208;-69
2022/03/27 11:16:06;;;;;;;2.57;2.37;;;11.40;99.90;10.60;102931.00;;;;5109115;28;20268;-69
2022/03/27 11:18:41;;;;;;;0.30;0.30;;;11.30;99.90;11.50;102974.00;;;;5107862;28;20635;-69
2022/03/27 11:21:27;;;;;;;1.30;1.17;;;11.50;99.90;11.00;102966.00;;;;5108992;28;20187;-67
2022/03/27 11:24:19;;;;;;;0.93;0.93;;;11.50;99.90;10.90;102961.00;;;;5109243;28;20853;-68
2022/03/27 11:26:45;;;;;;;5.87;2.87;;;11.60;99.90;11.60;102936.00;;;;5098700;28;20181;-69